createdAt,value
2022-11-16T00:01:54.315Z,13.90
2022-11-16T00:04:39.686Z,13.90
2022-11-16T00:07:27.808Z,13.90
2022-11-16T00:10:13.429Z,13.90
2022-11-16T00:12:58.970Z,13.90
2022-11-16T00:16:04.498Z,13.90
2022-11-16T00:18:59.606Z,13.90
2022-11-16T00:21:44.920Z,13.90
2022-11-16T00:24:30.451Z,13.90
2022-11-16T00:27:15.946Z,13.90
2022-11-16T00:30:02.090Z,13.90
2022-11-16T00:32:47.691Z,13.90
2022-11-16T00:35:37.469Z,13.90
2022-11-16T00:38:23.290Z,13.90
2022-11-16T00:41:09.538Z,13.90
2022-11-16T00:43:55.085Z,13.90
2022-11-16T00:46:41.294Z,14.00
2022-11-16T00:49:26.879Z,13.90
2022-11-16T00:52:12.596Z,13.90
2022-11-16T00:54:57.797Z,13.90
2022-11-16T00:57:43.659Z,13.90
2022-11-16T01:00:29.415Z,13.90
2022-11-16T01:03:15.607Z,13.90
2022-11-16T01:06:05.559Z,13.90
2022-11-16T01:08:51.285Z,13.90
2022-11-16T01:11:55.849Z,14.00
2022-11-16T01:14:46.602Z,14.00
2022-11-16T01:17:32.106Z,13.90
2022-11-16T01:20:20.547Z,13.90
2022-11-16T01:23:06.097Z,13.90
2022-11-16T01:26:06.399Z,13.90
2022-11-16T01:28:54.169Z,13.90
2022-11-16T01:31:39.993Z,13.90
2022-11-16T01:34:25.135Z,13.90
2022-11-16T01:37:16.235Z,13.90
2022-11-16T01:40:01.624Z,13.90
2022-11-16T01:42:48.119Z,13.90
2022-11-16T01:45:39.151Z,13.90
2022-11-16T01:48:30.102Z,13.90
2022-11-16T01:51:16.490Z,14.00
2022-11-16T01:54:06.207Z,14.00
2022-11-16T01:56:55.566Z,14.00
2022-11-16T02:00:09.490Z,14.00
2022-11-16T02:03:21.670Z,14.00
2022-11-16T02:06:26.362Z,14.00
2022-11-16T02:09:57.039Z,14.00
2022-11-16T02:12:53.681Z,14.00
2022-11-16T02:16:17.246Z,13.90
2022-11-16T02:19:17.169Z,13.90
2022-11-16T02:22:47.526Z,13.90
2022-11-16T02:25:39.848Z,13.90
2022-11-16T02:28:31.042Z,13.90
2022-11-16T02:31:32.847Z,13.90
2022-11-16T02:34:20.987Z,13.90
2022-11-16T02:37:12.627Z,13.80
2022-11-16T02:40:01.310Z,13.80
2022-11-16T02:42:58.094Z,13.80
2022-11-16T02:45:51.228Z,13.80
2022-11-16T02:48:45.582Z,13.80
2022-11-16T02:51:33.617Z,13.80
2022-11-16T02:54:20.666Z,13.70
2022-11-16T02:57:28.028Z,13.80
2022-11-16T03:00:21.633Z,13.80
2022-11-16T03:03:25.598Z,13.70
2022-11-16T03:06:23.080Z,13.70
2022-11-16T03:09:22.417Z,13.70
2022-11-16T03:12:12.138Z,13.60
2022-11-16T03:15:07.219Z,13.70
2022-11-16T03:17:53.921Z,13.60
2022-11-16T03:20:43.712Z,13.60
2022-11-16T03:23:29.702Z,13.60
2022-11-16T03:26:20.150Z,13.60
2022-11-16T03:29:17.351Z,13.60
2022-11-16T03:32:19.049Z,13.60
2022-11-16T03:35:10.745Z,13.50
2022-11-16T03:37:59.214Z,13.50
2022-11-16T03:40:51.954Z,13.50
2022-11-16T03:43:38.997Z,13.40
2022-11-16T03:46:25.642Z,13.50
2022-11-16T03:49:11.203Z,13.40
2022-11-16T03:51:58.205Z,13.40
2022-11-16T03:54:44.038Z,13.40
2022-11-16T03:57:30.397Z,13.30
2022-11-16T04:00:18.558Z,13.30
2022-11-16T04:03:04.149Z,13.30
2022-11-16T04:06:08.036Z,13.30
2022-11-16T04:09:12.903Z,13.20
2022-11-16T04:12:16.651Z,13.10
2022-11-16T04:15:20.751Z,13.10
2022-11-16T04:18:26.139Z,13.10
2022-11-16T04:21:52.725Z,13.00
2022-11-16T04:24:41.945Z,13.00
2022-11-16T04:27:50.369Z,12.90
2022-11-16T04:30:55.910Z,12.90
2022-11-16T04:34:00.456Z,12.90
2022-11-16T04:37:04.847Z,12.90
2022-11-16T04:39:50.434Z,12.90
2022-11-16T04:42:36.014Z,12.80
2022-11-16T04:45:42.408Z,12.80
2022-11-16T04:48:28.614Z,12.70
2022-11-16T04:51:14.615Z,12.70
2022-11-16T04:54:00.403Z,12.70
2022-11-16T04:56:46.115Z,12.60
2022-11-16T04:59:56.756Z,12.60
2022-11-16T05:02:45.951Z,12.60
2022-11-16T05:05:31.343Z,12.60
2022-11-16T05:08:21.210Z,12.50
2022-11-16T05:11:09.311Z,12.60
2022-11-16T05:13:54.482Z,12.50
2022-11-16T05:16:39.993Z,12.40
2022-11-16T05:19:44.095Z,12.40
2022-11-16T05:22:30.003Z,12.40
2022-11-16T05:25:16.145Z,12.40
2022-11-16T05:28:01.548Z,12.40
2022-11-16T05:30:48.995Z,12.30
2022-11-16T05:33:41.158Z,12.30
2022-11-16T05:36:28.663Z,12.20
2022-11-16T05:39:14.246Z,12.20
2022-11-16T05:42:00.559Z,12.10
2022-11-16T05:44:46.154Z,12.10
2022-11-16T05:47:35.717Z,12.10
2022-11-16T05:50:21.659Z,12.00
2022-11-16T05:53:19.775Z,11.90
2022-11-16T05:56:06.906Z,11.90
2022-11-16T05:58:58.578Z,11.80
2022-11-16T06:01:44.348Z,11.70
2022-11-16T06:04:33.814Z,11.60
2022-11-16T06:07:19.221Z,11.60
2022-11-16T06:10:05.299Z,11.50
2022-11-16T06:12:51.881Z,11.40
2022-11-16T06:15:38.326Z,11.40
2022-11-16T06:18:26.828Z,11.30
2022-11-16T06:21:13.461Z,11.30
2022-11-16T06:23:59.407Z,11.20
2022-11-16T06:26:47.095Z,11.10
2022-11-16T06:29:32.558Z,11.10
2022-11-16T06:32:18.044Z,11.00
2022-11-16T06:35:04.683Z,10.90
2022-11-16T06:37:50.642Z,10.90
2022-11-16T06:40:39.758Z,10.80
2022-11-16T06:43:26.136Z,10.70
2022-11-16T06:46:12.105Z,10.70
2022-11-16T06:48:58.751Z,10.60
2022-11-16T06:51:46.462Z,10.60
2022-11-16T06:54:31.938Z,10.60
2022-11-16T06:57:18.666Z,10.50
2022-11-16T07:00:05.311Z,10.50
2022-11-16T07:02:52.778Z,10.50
2022-11-16T07:05:42.114Z,10.50
2022-11-16T07:08:31.767Z,10.50
2022-11-16T07:11:17.499Z,10.50
2022-11-16T07:14:03.518Z,10.50
2022-11-16T07:16:49.220Z,10.50
2022-11-16T07:19:36.850Z,10.50
2022-11-16T07:22:23.274Z,10.50
2022-11-16T07:25:09.880Z,10.50
2022-11-16T07:27:57.259Z,10.50
2022-11-16T07:30:44.602Z,10.40
2022-11-16T07:33:34.554Z,10.40
2022-11-16T07:36:46.041Z,10.40
2022-11-16T07:39:31.140Z,10.30
2022-11-16T07:42:20.087Z,10.30
2022-11-16T07:45:18.758Z,10.20
2022-11-16T07:48:14.218Z,10.20
2022-11-16T07:51:19.797Z,10.20
2022-11-16T07:54:22.835Z,10.20
2022-11-16T07:57:08.426Z,10.10
2022-11-16T07:59:53.976Z,10.10
2022-11-16T08:02:39.494Z,10.10
2022-11-16T08:05:26.962Z,10.10
2022-11-16T08:08:13.213Z,10.20
2022-11-16T08:11:05.511Z,10.20
2022-11-16T08:13:51.355Z,10.30
2022-11-16T08:16:37.862Z,10.30
2022-11-16T08:19:31.755Z,10.30
2022-11-16T08:22:17.301Z,10.40
2022-11-16T08:25:04.984Z,10.50
2022-11-16T08:27:50.582Z,10.50
2022-11-16T08:30:42.050Z,10.60
2022-11-16T08:33:30.275Z,10.60
2022-11-16T08:36:17.994Z,10.60
2022-11-16T08:39:04.439Z,10.70
2022-11-16T08:41:51.729Z,10.80
2022-11-16T08:44:36.898Z,10.80
2022-11-16T08:50:26.967Z,10.90
2022-11-16T08:53:15.171Z,11.00
2022-11-16T08:56:09.746Z,11.00
2022-11-16T08:58:58.933Z,11.10
2022-11-16T09:01:45.174Z,11.10
2022-11-16T09:04:35.762Z,11.20
2022-11-16T09:07:22.338Z,11.20
2022-11-16T09:10:08.240Z,11.30
2022-11-16T09:12:59.990Z,11.40
2022-11-16T09:15:45.470Z,11.40
2022-11-16T09:18:32.008Z,11.60
2022-11-16T09:21:29.249Z,11.70
2022-11-16T09:24:15.109Z,11.80
2022-11-16T09:27:01.499Z,11.80
2022-11-16T09:29:46.675Z,11.80
2022-11-16T09:32:32.172Z,11.80
2022-11-16T09:35:17.542Z,11.80
2022-11-16T09:38:03.791Z,11.80
2022-11-16T09:40:49.093Z,11.80
2022-11-16T09:43:55.389Z,11.90
2022-11-16T09:46:44.798Z,12.00
2022-11-16T09:49:44.034Z,12.10
2022-11-16T09:52:39.066Z,12.10
2022-11-16T09:56:00.559Z,12.20
2022-11-16T09:58:51.254Z,12.20
2022-11-16T10:02:06.934Z,12.20
2022-11-16T10:04:58.713Z,12.20
2022-11-16T10:07:48.525Z,12.20
2022-11-16T10:10:38.464Z,12.20
2022-11-16T10:14:03.838Z,12.30
2022-11-16T10:17:12.978Z,12.30
2022-11-16T10:20:15.285Z,12.30
2022-11-16T10:23:35.773Z,12.40
2022-11-16T10:26:50.567Z,12.50
2022-11-16T10:29:55.551Z,12.60
2022-11-16T10:32:50.691Z,12.50
2022-11-16T10:35:40.585Z,12.60
2022-11-16T10:38:33.118Z,12.70
2022-11-16T10:41:31.113Z,12.80
2022-11-16T10:44:39.769Z,12.90
2022-11-16T10:47:36.718Z,13.10
2022-11-16T10:50:40.833Z,13.20
2022-11-16T10:53:46.786Z,13.30
2022-11-16T10:56:40.358Z,13.40
2022-11-16T10:59:42.597Z,13.70
2022-11-16T11:02:36.826Z,14.10
2022-11-16T11:05:22.826Z,14.60
2022-11-16T11:08:12.008Z,14.90
2022-11-16T11:11:23.189Z,15.40
2022-11-16T11:14:14.712Z,15.70
2022-11-16T11:17:12.205Z,16.20
2022-11-16T11:20:21.737Z,16.70
2022-11-16T11:23:22.550Z,16.80
2022-11-16T11:26:11.437Z,17.20
2022-11-16T11:28:57.030Z,17.40
2022-11-16T11:31:49.595Z,17.10
2022-11-16T11:34:48.198Z,16.80
2022-11-16T11:37:36.334Z,16.20
2022-11-16T11:40:26.318Z,15.80
2022-11-16T11:43:23.674Z,15.30
2022-11-16T11:46:21.258Z,15.00
2022-11-16T11:49:37.232Z,14.80
2022-11-16T11:52:42.038Z,14.70
2022-11-16T11:55:27.825Z,14.80
2022-11-16T11:58:18.752Z,15.00
2022-11-16T12:01:35.007Z,15.20
2022-11-16T12:04:23.170Z,15.80
2022-11-16T12:07:40.162Z,17.10
2022-11-16T12:10:51.132Z,18.10
2022-11-16T12:14:00.973Z,18.70
2022-11-16T12:16:51.386Z,20.00
2022-11-16T12:20:15.701Z,20.90
2022-11-16T12:23:27.220Z,22.10
2022-11-16T12:26:50.195Z,22.10
2022-11-16T12:30:06.024Z,21.40
2022-11-16T12:33:10.025Z,21.00
2022-11-16T12:36:08.129Z,20.80
2022-11-16T12:39:16.879Z,20.00
2022-11-16T12:42:41.023Z,18.90
2022-11-16T12:45:39.469Z,18.20
2022-11-16T12:48:36.559Z,17.80
2022-11-16T12:51:49.710Z,17.90
2022-11-16T12:55:03.950Z,17.80
2022-11-16T12:58:07.731Z,17.50
2022-11-16T13:01:19.117Z,17.20
2022-11-16T13:04:31.537Z,16.90
2022-11-16T13:07:39.887Z,16.80
2022-11-16T13:10:30.240Z,16.50
2022-11-16T13:13:39.355Z,16.20
2022-11-16T13:16:25.135Z,16.00
2022-11-16T13:19:13.454Z,15.80
2022-11-16T13:22:21.586Z,16.00
2022-11-16T13:25:14.779Z,17.20
2022-11-16T13:28:33.535Z,17.70
2022-11-16T13:31:35.255Z,18.20
2022-11-16T13:34:37.817Z,19.10
2022-11-16T13:37:38.449Z,20.70
2022-11-16T13:43:37.111Z,22.00
2022-11-16T13:46:54.165Z,21.20
2022-11-16T13:49:43.278Z,20.30
2022-11-16T13:53:28.353Z,19.50
2022-11-16T13:56:02.110Z,18.90
2022-11-16T13:58:50.861Z,18.30
2022-11-16T14:01:57.003Z,17.80
2022-11-16T14:04:59.515Z,17.40
2022-11-16T14:07:49.494Z,17.10
2022-11-16T14:10:35.052Z,16.80
2022-11-16T14:13:51.518Z,16.50
2022-11-16T14:16:45.774Z,16.30
2022-11-16T14:19:44.322Z,16.30
2022-11-16T14:22:52.917Z,16.20
2022-11-16T14:25:41.650Z,16.20
2022-11-16T14:28:54.128Z,16.10
2022-11-16T14:32:17.023Z,15.90
2022-11-16T14:35:06.202Z,15.70
2022-11-16T14:38:02.850Z,15.60
2022-11-16T14:40:56.241Z,15.70
2022-11-16T14:43:50.051Z,16.70
2022-11-16T14:46:38.216Z,17.30
2022-11-16T14:49:25.970Z,17.80
2022-11-16T14:52:17.165Z,17.50
2022-11-16T14:55:08.289Z,17.10
2022-11-16T14:58:20.339Z,16.80
2022-11-16T15:01:12.138Z,16.50
2022-11-16T15:04:07.033Z,16.10
2022-11-16T15:07:03.061Z,15.70
2022-11-16T15:09:54.161Z,15.40
2022-11-16T15:12:42.776Z,15.20
2022-11-16T15:15:30.260Z,15.00
2022-11-16T15:18:21.935Z,14.90
2022-11-16T15:21:21.302Z,14.70
2022-11-16T15:24:29.392Z,14.50
2022-11-16T15:27:36.522Z,14.30
2022-11-16T15:30:49.558Z,14.10
2022-11-16T15:33:39.303Z,13.80
2022-11-16T15:36:39.454Z,13.60
2022-11-16T15:39:31.864Z,13.40
2022-11-16T15:42:18.521Z,13.20
2022-11-16T15:45:18.489Z,13.10
2022-11-16T15:48:05.198Z,12.90
2022-11-16T15:51:05.086Z,12.80
2022-11-16T15:53:55.078Z,12.70
2022-11-16T15:56:41.582Z,12.60
2022-11-16T15:59:34.155Z,12.50
2022-11-16T16:02:22.390Z,12.40
2022-11-16T16:05:40.829Z,12.30
2022-11-16T16:08:37.767Z,12.10
2022-11-16T16:11:26.781Z,12.00
2022-11-16T16:14:35.268Z,11.90
2022-11-16T16:17:32.682Z,11.80
2022-11-16T16:20:20.641Z,11.80
2022-11-16T16:23:19.028Z,11.70
2022-11-16T16:26:08.494Z,11.60
2022-11-16T16:28:54.027Z,11.50
2022-11-16T16:31:39.379Z,11.40
2022-11-16T16:34:25.101Z,11.30
2022-11-16T16:37:11.857Z,11.20
2022-11-16T16:39:57.869Z,11.20
2022-11-16T16:42:51.126Z,11.10
2022-11-16T16:45:43.392Z,11.00
2022-11-16T16:48:29.552Z,10.90
2022-11-16T16:51:15.709Z,10.90
2022-11-16T16:54:13.959Z,10.80
2022-11-16T16:57:01.378Z,10.80
2022-11-16T16:59:48.226Z,10.80
2022-11-16T17:02:33.565Z,10.70
2022-11-16T17:05:18.930Z,10.70
2022-11-16T17:08:04.762Z,10.70
2022-11-16T17:10:50.363Z,10.60
2022-11-16T17:13:36.059Z,10.60
2022-11-16T17:16:22.466Z,10.60
2022-11-16T17:19:07.631Z,10.60
2022-11-16T17:21:53.471Z,10.60
2022-11-16T17:24:38.832Z,10.50
2022-11-16T17:27:26.049Z,10.50
2022-11-16T17:30:14.494Z,10.50
2022-11-16T17:33:00.208Z,10.50
2022-11-16T17:35:56.072Z,10.50
2022-11-16T17:38:41.755Z,10.50
2022-11-16T17:41:27.998Z,10.50
2022-11-16T17:44:18.568Z,10.50
2022-11-16T17:47:07.522Z,10.50
2022-11-16T17:49:53.073Z,10.50
2022-11-16T17:52:38.566Z,10.50
2022-11-16T17:55:23.760Z,10.50
2022-11-16T17:58:09.313Z,10.50
2022-11-16T18:00:56.729Z,10.40
2022-11-16T18:03:44.635Z,10.40
2022-11-16T18:06:30.037Z,10.40
2022-11-16T18:09:15.752Z,10.40
2022-11-16T18:12:00.881Z,10.40
2022-11-16T18:15:21.334Z,10.40
2022-11-16T18:17:57.650Z,10.40
2022-11-16T18:20:43.354Z,10.50
2022-11-16T18:23:29.789Z,10.50
2022-11-16T18:26:18.730Z,10.50
2022-11-16T18:29:04.497Z,10.50
2022-11-16T18:31:49.743Z,10.50
2022-11-16T18:34:37.622Z,10.50
2022-11-16T18:37:22.894Z,10.50
2022-11-16T18:40:09.554Z,10.50
2022-11-16T18:42:55.262Z,10.50
2022-11-16T18:45:40.739Z,10.50
2022-11-16T18:48:26.503Z,10.50
2022-11-16T18:51:12.641Z,10.50
2022-11-16T18:53:58.107Z,10.50
2022-11-16T18:56:43.472Z,10.50
2022-11-16T18:59:29.063Z,10.50
2022-11-16T19:02:14.555Z,10.50
2022-11-16T19:05:02.726Z,10.50
2022-11-16T19:07:48.055Z,10.50
2022-11-16T19:10:37.601Z,10.50
2022-11-16T19:13:22.869Z,10.60
2022-11-16T19:16:10.641Z,10.60
2022-11-16T19:18:56.065Z,10.60
2022-11-16T19:21:41.974Z,10.60
2022-11-16T19:24:30.625Z,10.60
2022-11-16T19:27:16.661Z,10.70
2022-11-16T19:30:02.050Z,10.70
2022-11-16T19:32:47.503Z,10.80
2022-11-16T19:35:32.973Z,10.80
2022-11-16T19:38:18.496Z,10.80
2022-11-16T19:41:04.575Z,10.80
2022-11-16T19:43:52.891Z,10.80
2022-11-16T19:46:38.112Z,10.80
2022-11-16T19:49:24.223Z,10.80
2022-11-16T19:52:09.852Z,10.80
2022-11-16T19:54:56.175Z,10.80
2022-11-16T19:57:41.884Z,10.90
2022-11-16T20:00:27.221Z,10.90
2022-11-16T20:03:12.529Z,10.90
2022-11-16T20:06:10.125Z,10.90
2022-11-16T20:09:02.109Z,11.00
2022-11-16T20:11:49.310Z,11.00
2022-11-16T20:14:34.654Z,11.00
2022-11-16T20:17:20.191Z,11.00
2022-11-16T20:20:06.263Z,11.00
2022-11-16T20:22:53.223Z,11.10
2022-11-16T20:25:41.842Z,11.10
2022-11-16T20:28:27.371Z,11.10
2022-11-16T20:31:18.015Z,11.20
2022-11-16T20:34:05.622Z,11.20
2022-11-16T20:36:51.338Z,11.20
2022-11-16T20:39:37.825Z,11.20
2022-11-16T20:42:24.128Z,11.30
2022-11-16T20:45:10.019Z,11.30
2022-11-16T20:47:55.160Z,11.30
2022-11-16T20:50:48.252Z,11.30
2022-11-16T20:53:34.524Z,11.40
2022-11-16T20:56:21.601Z,11.30
2022-11-16T20:59:07.055Z,11.40
2022-11-16T21:01:52.331Z,11.40
2022-11-16T21:04:38.000Z,11.40
2022-11-16T21:07:24.166Z,11.40
2022-11-16T21:10:18.992Z,11.40
2022-11-16T21:13:24.497Z,11.40
2022-11-16T21:16:11.714Z,11.40
2022-11-16T21:18:56.974Z,11.40
2022-11-16T21:21:42.671Z,11.40
2022-11-16T21:24:28.400Z,11.40
2022-11-16T21:27:13.857Z,11.40
2022-11-16T21:29:59.047Z,11.50
2022-11-16T21:32:44.490Z,11.50
2022-11-16T21:35:30.554Z,11.50
2022-11-16T21:38:15.916Z,11.50
2022-11-16T21:41:02.095Z,11.60
2022-11-16T21:43:48.505Z,11.60
2022-11-16T21:46:36.699Z,11.70
2022-11-16T21:49:21.730Z,11.70
2022-11-16T21:52:07.335Z,11.70
2022-11-16T21:54:59.151Z,11.70
2022-11-16T21:57:44.170Z,11.70
2022-11-16T22:00:29.902Z,11.70
2022-11-16T22:03:15.966Z,11.70
2022-11-16T22:06:22.376Z,11.70
2022-11-16T22:09:07.519Z,11.70
2022-11-16T22:11:55.474Z,11.70
2022-11-16T22:14:40.882Z,11.70
2022-11-16T22:17:27.081Z,11.60
2022-11-16T22:20:12.309Z,11.60
2022-11-16T22:22:57.743Z,11.60
2022-11-16T22:25:43.546Z,11.60
2022-11-16T22:28:29.274Z,11.60
2022-11-16T22:31:15.017Z,11.60
2022-11-16T22:34:00.507Z,11.60
2022-11-16T22:36:45.777Z,11.60
2022-11-16T22:39:33.599Z,11.60
2022-11-16T22:42:18.935Z,11.60
2022-11-16T22:45:04.966Z,11.60
2022-11-16T22:47:54.993Z,11.60
2022-11-16T22:50:43.127Z,11.70
2022-11-16T22:53:28.598Z,11.70
2022-11-16T22:56:14.030Z,11.70
2022-11-16T22:59:02.599Z,11.70
2022-11-16T23:01:47.859Z,11.70
2022-11-16T23:04:33.326Z,11.70
2022-11-16T23:07:18.597Z,11.70
2022-11-16T23:10:04.596Z,11.70
2022-11-16T23:13:08.922Z,11.70
2022-11-16T23:15:54.166Z,11.70
2022-11-16T23:18:39.690Z,11.80
2022-11-16T23:21:43.934Z,11.80
2022-11-16T23:24:47.806Z,11.70
2022-11-16T23:27:55.316Z,11.80
2022-11-16T23:30:41.792Z,11.70
2022-11-16T23:33:43.815Z,11.80
2022-11-16T23:36:29.084Z,11.80
2022-11-16T23:39:14.639Z,11.80
2022-11-16T23:42:18.788Z,11.80
2022-11-16T23:45:04.673Z,11.80
2022-11-16T23:47:50.109Z,11.80
2022-11-16T23:50:36.391Z,11.80
2022-11-16T23:53:21.602Z,11.80
2022-11-16T23:56:07.613Z,11.80
2022-11-16T23:58:57.434Z,11.80
